Time;durP1;ratioP1;P1;durP2;ratioP2;P2;SDS_P1;SDS_P2;PMS_P1;PMS_P2;Temp;Humidity;BMP_temperature;BMP_pressure;BME280_temperature;BME280_humidity;BME280_pressure;Samples;Min_cycle;Max_cycle;Signal;HPM_P1;HPM_P2
2023/06/26 00:02:08;;;;;;;40.17;18.48;;;;;;;;;;10463142;22;20346;-89
2023/06/26 00:06:13;;;;;;;32.13;16.58;;;;;;;;;;10464437;22;20015;-89
2023/06/26 00:10:16;;;;;;;30.77;16.08;;;;;;;;;;10490960;22;20026;-88
2023/06/26 00:14:20;;;;;;;39.85;17.08;;;;;;;;;;10490566;22;20038;-89
2023/06/26 00:18:24;;;;;;;35.03;17.67;;;;;;;;;;10491284;22;20339;-90
2023/06/26 00:22:28;;;;;;;30.80;15.82;;;;;;;;;;10491915;22;20442;-90
2023/06/26 00:26:31;;;;;;;32.42;16.13;;;;;;;;;;10493989;22;20021;-90
2023/06/26 00:30:34;;;;;;;27.95;15.15;;;;;;;;;;10493815;22;20046;-92
2023/06/26 00:34:37;;;;;;;32.40;16.05;;;;;;;;;;10493794;22;20041;-90
2023/06/26 00:38:41;;;;;;;33.03;16.05;;;;;;;;;;10493715;22;20085;-90
2023/06/26 00:42:44;;;;;;;34.45;16.05;;;;;;;;;;10493427;22;20533;-92
2023/06/26 00:46:47;;;;;;;35.10;15.80;;;;;;;;;;10493359;22;20099;-90
2023/06/26 00:50:50;;;;;;;34.25;16.52;;;;;;;;;;10493379;22;20053;-90
2023/06/26 00:54:56;;;;;;;35.47;16.55;;;;;;;;;;10493490;22;20068;-91
2023/06/26 00:58:59;;;;;;;38.00;15.15;;;;;;;;;;10510773;22;20026;-90
2023/06/26 01:03:02;;;;;;;31.20;14.52;;;;;;;;;;10493358;22;20046;-91
2023/06/26 01:07:07;;;;;;;30.75;14.30;;;;;;;;;;10492487;22;20015;-91
2023/06/26 01:11:12;;;;;;;30.30;14.38;;;;;;;;;;10493139;22;20025;-91
2023/06/26 01:15:15;;;;;;;29.30;14.65;;;;;;;;;;10493138;22;20015;-88
2023/06/26 01:19:24;;;;;;;28.85;13.85;;;;;;;;;;10492600;22;20037;-89
2023/06/26 01:23:37;;;;;;;31.50;14.25;;;;;;;;;;10510557;22;20460;-90
2023/06/26 01:27:44;;;;;;;31.60;14.40;;;;;;;;;;10509549;22;20019;-90
2023/06/26 01:31:49;;;;;;;24.65;14.45;;;;;;;;;;10509413;22;20457;-89
2023/06/26 01:35:52;;;;;;;29.17;13.77;;;;;;;;;;10491425;22;20015;-89
2023/06/26 01:39:55;;;;;;;29.52;15.25;;;;;;;;;;10491472;22;20054;-90
2023/06/26 01:44:16;;;;;;;27.33;14.48;;;;;;;;;;10489749;22;20441;-88
2023/06/26 01:48:24;;;;;;;30.23;14.80;;;;;;;;;;10509454;22;20042;-90
2023/06/26 01:52:35;;;;;;;33.05;16.15;;;;;;;;;;10508949;22;20018;-89
2023/06/26 01:56:40;;;;;;;33.58;15.55;;;;;;;;;;10509632;22;20067;-89
2023/06/26 02:00:45;;;;;;;28.67;14.25;;;;;;;;;;10492799;22;20026;-89
2023/06/26 02:04:49;;;;;;;34.33;14.95;;;;;;;;;;10491401;22;20033;-89
2023/06/26 02:08:52;;;;;;;31.42;14.75;;;;;;;;;;10492178;22;20025;-89
2023/06/26 02:12:55;;;;;;;31.27;15.52;;;;;;;;;;10492116;22;20449;-89
2023/06/26 02:17:01;;;;;;;31.10;15.25;;;;;;;;;;10492265;22;20120;-88
2023/06/26 02:21:05;;;;;;;31.60;14.55;;;;;;;;;;10492183;22;20037;-90
2023/06/26 02:25:09;;;;;;;26.77;14.15;;;;;;;;;;10492072;22;20393;-88
2023/06/26 02:29:12;;;;;;;25.33;13.88;;;;;;;;;;10491996;22;20095;-88
2023/06/26 02:33:17;;;;;;;28.98;14.07;;;;;;;;;;10492465;22;20312;-87
2023/06/26 02:37:20;;;;;;;26.85;12.75;;;;;;;;;;10491789;22;20018;-90
2023/06/26 02:41:23;;;;;;;27.98;13.80;;;;;;;;;;10491452;22;20019;-90
2023/06/26 02:45:26;;;;;;;26.00;13.85;;;;;;;;;;10491241;22;20022;-89
2023/06/26 02:49:31;;;;;;;26.77;14.02;;;;;;;;;;10491429;22;20019;-88
2023/06/26 02:53:34;;;;;;;34.65;14.73;;;;;;;;;;10491416;22;20478;-89
2023/06/26 02:57:37;;;;;;;27.45;14.48;;;;;;;;;;10491463;22;20046;-88
2023/06/26 03:01:40;;;;;;;31.58;14.73;;;;;;;;;;10491382;22;20466;-88
2023/06/26 03:05:44;;;;;;;30.88;14.50;;;;;;;;;;10491693;22;20019;-88
2023/06/26 03:09:47;;;;;;;23.13;12.90;;;;;;;;;;10490827;22;20100;-88
2023/06/26 03:13:50;;;;;;;22.45;12.00;;;;;;;;;;10491206;22;20026;-87
2023/06/26 03:17:53;;;;;;;24.33;12.82;;;;;;;;;;10490875;22;20019;-89
2023/06/26 03:21:58;;;;;;;24.15;12.82;;;;;;;;;;10491040;22;20025;-87
2023/06/26 03:26:01;;;;;;;20.10;11.65;;;;;;;;;;10490099;22;20439;-89
2023/06/26 03:30:04;;;;;;;23.70;12.65;;;;;;;;;;10490848;22;20016;-89
2023/06/26 03:34:07;;;;;;;16.23;10.90;;;;;;;;;;10491050;22;20019;-88
2023/06/26 03:38:12;;;;;;;24.10;12.38;;;;;;;;;;10490872;22;20023;-88
2023/06/26 03:42:15;;;;;;;24.60;12.75;;;;;;;;;;10490651;22;20022;-88
2023/06/26 03:46:18;;;;;;;22.20;12.73;;;;;;;;;;10490853;22;20050;-91
2023/06/26 03:50:22;;;;;;;18.00;11.77;;;;;;;;;;10490413;22;20435;-89
2023/06/26 03:54:26;;;;;;;22.05;11.82;;;;;;;;;;10462824;22;20458;-90
2023/06/26 03:58:29;;;;;;;22.80;12.85;;;;;;;;;;10492916;22;20068;-89
2023/06/26 04:02:32;;;;;;;21.50;12.52;;;;;;;;;;10493386;22;20014;-89
2023/06/26 04:06:35;;;;;;;20.58;12.38;;;;;;;;;;10465946;22;20034;-89
2023/06/26 04:10:40;;;;;;;23.30;13.85;;;;;;;;;;10493379;22;20511;-89
2023/06/26 04:14:44;;;;;;;23.77;14.00;;;;;;;;;;10493080;22;20435;-89
2023/06/26 04:18:47;;;;;;;17.02;9.75;;;;;;;;;;10493789;22;20030;-89
2023/06/26 04:22:53;;;;;;;12.20;8.00;;;;;;;;;;10493182;22;20022;-90
2023/06/26 04:26:58;;;;;;;12.75;8.35;;;;;;;;;;10465709;22;20025;-89
2023/06/26 04:31:03;;;;;;;10.77;8.10;;;;;;;;;;10492650;22;20019;-89
2023/06/26 04:35:09;;;;;;;12.45;8.25;;;;;;;;;;10465675;22;20025;-89
2023/06/26 04:39:15;;;;;;;12.43;8.10;;;;;;;;;;10465065;22;20071;-88
2023/06/26 04:43:19;;;;;;;12.50;8.32;;;;;;;;;;10465123;22;20019;-88
2023/06/26 04:47:25;;;;;;;12.57;7.95;;;;;;;;;;10465364;22;20014;-90
2023/06/26 04:51:28;;;;;;;13.48;7.97;;;;;;;;;;10465296;22;20021;-88
2023/06/26 04:55:31;;;;;;;12.45;7.75;;;;;;;;;;10465109;22;20086;-87
2023/06/26 04:59:37;;;;;;;10.25;6.95;;;;;;;;;;10487702;22;20803;-88
2023/06/26 05:03:40;;;;;;;9.32;6.05;;;;;;;;;;10505571;22;20014;-88
2023/06/26 05:07:43;;;;;;;10.13;6.22;;;;;;;;;;10489172;22;20022;-88
2023/06/26 05:11:46;;;;;;;8.93;6.38;;;;;;;;;;10464141;22;20026;-88
2023/06/26 05:15:50;;;;;;;9.13;6.25;;;;;;;;;;10491583;22;20103;-89
2023/06/26 05:19:53;;;;;;;10.05;6.00;;;;;;;;;;10491894;22;20022;-88
2023/06/26 05:23:58;;;;;;;8.40;5.95;;;;;;;;;;10491891;22;20473;-88
2023/06/26 05:28:02;;;;;;;8.98;5.63;;;;;;;;;;10463639;22;20025;-87
2023/06/26 05:32:08;;;;;;;8.55;5.47;;;;;;;;;;10490609;22;20014;-87
2023/06/26 05:36:12;;;;;;;6.68;5.15;;;;;;;;;;10491686;22;20019;-88
2023/06/26 05:40:17;;;;;;;7.75;5.55;;;;;;;;;;10491178;22;20094;-88
2023/06/26 05:44:20;;;;;;;8.63;5.57;;;;;;;;;;10489003;22;20018;-87
2023/06/26 05:48:24;;;;;;;10.23;5.55;;;;;;;;;;10490349;22;20418;-87
2023/06/26 05:52:28;;;;;;;8.43;5.60;;;;;;;;;;10490800;22;20029;-89
2023/06/26 05:56:32;;;;;;;11.43;6.40;;;;;;;;;;10486725;22;20443;-89
2023/06/26 06:00:35;;;;;;;9.68;6.35;;;;;;;;;;10489339;22;20011;-91
2023/06/26 06:04:40;;;;;;;13.23;7.10;;;;;;;;;;10490727;22;20058;-88
2023/06/26 06:08:43;;;;;;;13.98;6.68;;;;;;;;;;10490512;22;20022;-89
2023/06/26 06:12:46;;;;;;;12.90;6.65;;;;;;;;;;10491236;22;20021;-89
2023/06/26 06:16:49;;;;;;;12.45;7.40;;;;;;;;;;10491302;22;20438;-88
2023/06/26 06:20:53;;;;;;;13.68;7.50;;;;;;;;;;10490856;22;20025;-88
2023/06/26 06:24:56;;;;;;;12.95;6.63;;;;;;;;;;10490805;22;20019;-88
2023/06/26 06:28:59;;;;;;;15.20;8.13;;;;;;;;;;10490545;22;20022;-88
2023/06/26 06:33:03;;;;;;;12.23;7.85;;;;;;;;;;10490571;22;20034;-88
2023/06/26 06:37:07;;;;;;;18.13;8.63;;;;;;;;;;10492134;22;20030;-88
2023/06/26 06:41:10;;;;;;;13.15;7.13;;;;;;;;;;10490451;22;20071;-88
2023/06/26 06:45:13;;;;;;;12.20;7.25;;;;;;;;;;10490987;22;20095;-90
2023/06/26 06:49:16;;;;;;;15.00;6.97;;;;;;;;;;10461360;22;20025;-88
2023/06/26 06:53:21;;;;;;;14.57;7.07;;;;;;;;;;10490006;22;20400;-89
2023/06/26 06:57:24;;;;;;;15.38;7.13;;;;;;;;;;10507076;22;20023;-90
2023/06/26 07:01:31;;;;;;;16.10;6.40;;;;;;;;;;10490727;22;20058;-89
2023/06/26 07:05:35;;;;;;;15.52;5.97;;;;;;;;;;10460099;22;20022;-89
2023/06/26 07:09:39;;;;;;;12.38;6.18;;;;;;;;;;10489964;22;20019;-90
2023/06/26 07:13:42;;;;;;;11.50;5.72;;;;;;;;;;10489068;22;20087;-89
2023/06/26 07:17:45;;;;;;;11.50;6.03;;;;;;;;;;10490537;22;20015;-87
2023/06/26 07:21:48;;;;;;;8.70;5.50;;;;;;;;;;10490371;22;20358;-87
2023/06/26 07:25:53;;;;;;;7.95;5.10;;;;;;;;;;10490351;22;20022;-90
2023/06/26 07:29:56;;;;;;;8.88;4.93;;;;;;;;;;10490577;22;20060;-88
2023/06/26 07:33:59;;;;;;;6.20;4.63;;;;;;;;;;10493350;22;20045;-89
2023/06/26 07:38:02;;;;;;;7.13;4.25;;;;;;;;;;10492245;22;20092;-89
2023/06/26 07:42:06;;;;;;;7.63;4.50;;;;;;;;;;10493458;22;20026;-89
2023/06/26 07:46:09;;;;;;;6.65;3.88;;;;;;;;;;10466080;22;20023;-89
2023/06/26 07:50:12;;;;;;;7.47;4.30;;;;;;;;;;10493514;22;20022;-89
2023/06/26 07:54:15;;;;;;;6.00;4.05;;;;;;;;;;10493574;22;20328;-89
2023/06/26 07:58:19;;;;;;;5.95;4.15;;;;;;;;;;10492752;22;20018;-87
2023/06/26 08:02:22;;;;;;;5.82;3.53;;;;;;;;;;10493557;22;20100;-87
2023/06/26 08:06:26;;;;;;;5.25;3.85;;;;;;;;;;10493400;22;20015;-88
2023/06/26 08:10:30;;;;;;;7.80;4.00;;;;;;;;;;10493806;22;20022;-88
2023/06/26 08:14:34;;;;;;;8.07;4.07;;;;;;;;;;10493338;22;20122;-88
2023/06/26 08:18:37;;;;;;;8.38;3.83;;;;;;;;;;10493180;22;20019;-88
2023/06/26 08:22:41;;;;;;;4.82;3.75;;;;;;;;;;10492804;22;20039;-88
2023/06/26 08:26:46;;;;;;;4.90;3.63;;;;;;;;;;10492767;22;20025;-88
2023/06/26 08:30:51;;;;;;;5.80;3.67;;;;;;;;;;10492555;22;20029;-89
2023/06/26 08:34:54;;;;;;;5.75;3.40;;;;;;;;;;10464870;22;20018;-91
2023/06/26 08:38:57;;;;;;;6.40;3.80;;;;;;;;;;10492477;22;20466;-88
2023/06/26 08:43:00;;;;;;;6.47;3.70;;;;;;;;;;10492156;22;20021;-90
2023/06/26 08:47:05;;;;;;;4.65;3.50;;;;;;;;;;10490296;22;20019;-89
2023/06/26 08:51:12;;;;;;;6.15;3.63;;;;;;;;;;10503768;22;20034;-89
2023/06/26 08:55:17;;;;;;;5.85;3.20;;;;;;;;;;10505073;22;20018;-89
2023/06/26 08:59:22;;;;;;;6.03;3.20;;;;;;;;;;10486659;22;20018;-90
2023/06/26 09:03:27;;;;;;;6.45;3.42;;;;;;;;;;10486577;22;20106;-89
2023/06/26 09:07:30;;;;;;;4.80;3.58;;;;;;;;;;10486029;22;20030;-89
2023/06/26 09:11:32;;;;;;;5.72;3.33;;;;;;;;;;10486065;22;20068;-89
2023/06/26 09:15:40;;;;;;;7.40;3.35;;;;;;;;;;10485052;22;20022;-89
2023/06/26 09:19:46;;;;;;;5.47;3.40;;;;;;;;;;10485114;22;20023;-89
2023/06/26 09:23:51;;;;;;;4.25;3.08;;;;;;;;;;10485719;22;20080;-89
2023/06/26 09:27:54;;;;;;;4.32;3.25;;;;;;;;;;10486290;22;20046;-90
2023/06/26 09:31:58;;;;;;;7.07;3.38;;;;;;;;;;10486048;22;20023;-89
2023/06/26 09:36:03;;;;;;;5.55;3.42;;;;;;;;;;10485958;22;20402;-89
2023/06/26 09:40:07;;;;;;;6.75;3.67;;;;;;;;;;10484556;22;20023;-89
2023/06/26 09:44:13;;;;;;;6.85;3.60;;;;;;;;;;10486497;22;20023;-89
2023/06/26 09:48:18;;;;;;;6.43;3.42;;;;;;;;;;10503629;22;20015;-89
2023/06/26 09:52:23;;;;;;;6.85;3.78;;;;;;;;;;10485273;22;20373;-90
2023/06/26 09:56:27;;;;;;;5.22;3.38;;;;;;;;;;10484927;22;20024;-92
2023/06/26 10:00:29;;;;;;;6.70;3.63;;;;;;;;;;10456601;22;20031;-90
2023/06/26 10:04:32;;;;;;;5.63;3.33;;;;;;;;;;10486105;22;20019;-90
2023/06/26 10:08:38;;;;;;;7.30;3.83;;;;;;;;;;10484960;22;20018;-90
2023/06/26 10:12:42;;;;;;;6.60;4.32;;;;;;;;;;10502472;22;20019;-91
2023/06/26 10:16:46;;;;;;;10.15;4.40;;;;;;;;;;10489302;22;20038;-91
2023/06/26 10:20:49;;;;;;;9.23;4.25;;;;;;;;;;10490538;22;20019;-90
2023/06/26 10:24:57;;;;;;;6.95;3.85;;;;;;;;;;10490885;22;20019;-90
2023/06/26 10:29:00;;;;;;;4.97;3.60;;;;;;;;;;10508388;22;20352;-89
2023/06/26 10:33:04;;;;;;;6.72;4.18;;;;;;;;;;10491061;22;20461;-91
2023/06/26 10:37:07;;;;;;;8.90;4.82;;;;;;;;;;10490665;22;20454;-93
2023/06/26 10:41:15;;;;;;;7.88;3.50;;;;;;;;;;10490001;22;20022;-90
2023/06/26 10:45:22;;;;;;;7.57;3.83;;;;;;;;;;10508107;22;20454;-89
2023/06/26 10:49:28;;;;;;;5.55;3.58;;;;;;;;;;10492044;22;20018;-90
2023/06/26 10:53:35;;;;;;;7.18;3.63;;;;;;;;;;10508614;22;20019;-90
2023/06/26 10:57:39;;;;;;;5.75;3.65;;;;;;;;;;10463530;22;20033;-89
2023/06/26 11:01:48;;;;;;;9.20;4.28;;;;;;;;;;10490664;22;20015;-88
2023/06/26 11:06:10;;;;;;;10.27;3.78;;;;;;;;;;10507301;22;20090;-90
2023/06/26 11:10:17;;;;;;;5.40;3.53;;;;;;;;;;10508258;22;20026;-92
2023/06/26 11:14:23;;;;;;;6.00;3.80;;;;;;;;;;10507947;22;20018;-89
2023/06/26 11:18:26;;;;;;;6.72;3.92;;;;;;;;;;10463888;22;20019;-92
2023/06/26 11:22:30;;;;;;;6.53;3.50;;;;;;;;;;10490754;22;20196;-89
2023/06/26 11:26:39;;;;;;;5.82;4.18;;;;;;;;;;10490879;22;20093;-89
2023/06/26 11:30:43;;;;;;;6.88;4.18;;;;;;;;;;10507602;22;20021;-90
2023/06/26 11:34:49;;;;;;;5.63;4.10;;;;;;;;;;10489666;22;20431;-88
2023/06/26 11:38:55;;;;;;;7.38;3.67;;;;;;;;;;10505307;22;20015;-90
2023/06/26 11:42:59;;;;;;;6.40;3.75;;;;;;;;;;10507594;22;20030;-89
2023/06/26 11:47:04;;;;;;;5.68;3.67;;;;;;;;;;10490627;22;20045;-91
2023/06/26 11:51:07;;;;;;;6.18;3.55;;;;;;;;;;10490995;22;20019;-90
2023/06/26 11:55:11;;;;;;;6.22;3.20;;;;;;;;;;10490329;22;20019;-91
2023/06/26 11:59:13;;;;;;;4.75;3.40;;;;;;;;;;10490127;22;20019;-90
2023/06/26 12:03:18;;;;;;;6.20;3.63;;;;;;;;;;10490180;22;20355;-89
2023/06/26 12:07:22;;;;;;;6.30;3.80;;;;;;;;;;10489764;22;20022;-89
2023/06/26 12:11:26;;;;;;;7.90;3.70;;;;;;;;;;10490305;22;20068;-89
2023/06/26 12:15:29;;;;;;;7.30;3.40;;;;;;;;;;10489950;22;20022;-90
2023/06/26 12:19:35;;;;;;;5.28;3.40;;;;;;;;;;10464921;22;20090;-90
2023/06/26 12:23:41;;;;;;;5.05;3.30;;;;;;;;;;10493109;22;20026;-90
2023/06/26 12:27:46;;;;;;;4.90;3.45;;;;;;;;;;10510628;22;20050;-90
2023/06/26 12:31:54;;;;;;;7.28;3.60;;;;;;;;;;10510496;22;20071;-89
2023/06/26 12:35:58;;;;;;;5.75;3.45;;;;;;;;;;10491676;22;20015;-91
2023/06/26 12:40:05;;;;;;;4.95;3.45;;;;;;;;;;10492685;22;20048;-90
2023/06/26 12:44:18;;;;;;;6.88;3.92;;;;;;;;;;10510410;22;20022;-89
2023/06/26 12:48:21;;;;;;;6.07;3.55;;;;;;;;;;10492942;22;20111;-90
2023/06/26 12:52:26;;;;;;;6.40;4.20;;;;;;;;;;10492394;22;20423;-90
2023/06/26 12:56:29;;;;;;;4.93;3.58;;;;;;;;;;10490631;22;20038;-90
2023/06/26 13:00:32;;;;;;;5.38;3.58;;;;;;;;;;10487229;22;20018;-90
2023/06/26 13:04:35;;;;;;;6.93;3.72;;;;;;;;;;10486580;22;20018;-90
2023/06/26 13:08:40;;;;;;;5.53;3.67;;;;;;;;;;10486937;22;20030;-89
2023/06/26 13:12:43;;;;;;;4.93;3.45;;;;;;;;;;10485866;22;20024;-90
2023/06/26 13:16:46;;;;;;;6.72;3.22;;;;;;;;;;10486300;22;20123;-90
2023/06/26 13:20:49;;;;;;;5.75;3.70;;;;;;;;;;10486104;22;20327;-89
2023/06/26 13:24:53;;;;;;;6.20;3.85;;;;;;;;;;10459850;22;20450;-90
2023/06/26 13:28:57;;;;;;;6.07;3.50;;;;;;;;;;10489896;22;20447;-88
2023/06/26 13:33:00;;;;;;;5.63;3.60;;;;;;;;;;10491928;22;20026;-88
2023/06/26 13:37:03;;;;;;;5.00;3.60;;;;;;;;;;10491954;22;20022;-88
2023/06/26 13:41:07;;;;;;;6.32;3.50;;;;;;;;;;10491282;22;20067;-93
2023/06/26 13:45:11;;;;;;;4.75;3.40;;;;;;;;;;10489260;22;20413;-89
2023/06/26 13:49:14;;;;;;;6.18;3.40;;;;;;;;;;10492314;22;20022;-89
2023/06/26 13:53:20;;;;;;;6.88;3.55;;;;;;;;;;10492025;22;20465;-87
2023/06/26 13:57:27;;;;;;;7.07;3.58;;;;;;;;;;10464937;22;20064;-89
2023/06/26 14:01:30;;;;;;;5.65;3.55;;;;;;;;;;10509104;22;20023;-90
2023/06/26 14:05:34;;;;;;;5.18;3.30;;;;;;;;;;10491622;22;20351;-88
2023/06/26 14:09:37;;;;;;;6.75;3.50;;;;;;;;;;10491852;22;20018;-90
2023/06/26 14:13:42;;;;;;;5.18;3.45;;;;;;;;;;10491552;22;20030;-89
2023/06/26 14:17:45;;;;;;;5.30;3.60;;;;;;;;;;10492181;22;20018;-88
2023/06/26 14:21:51;;;;;;;4.50;3.13;;;;;;;;;;10490778;22;20388;-92
2023/06/26 14:25:54;;;;;;;6.70;3.80;;;;;;;;;;10464833;22;20023;-90
2023/06/26 14:29:58;;;;;;;6.65;3.72;;;;;;;;;;10491785;22;20019;-88
2023/06/26 14:34:04;;;;;;;4.70;3.20;;;;;;;;;;10491387;22;20011;-88
2023/06/26 14:38:07;;;;;;;6.03;3.63;;;;;;;;;;10508164;22;20014;-89
2023/06/26 14:42:11;;;;;;;7.35;3.85;;;;;;;;;;10441074;22;20023;-90
2023/06/26 14:46:15;;;;;;;5.95;3.53;;;;;;;;;;10439236;22;20316;-90
2023/06/26 14:50:18;;;;;;;6.35;3.72;;;;;;;;;;10439277;22;20015;-90
2023/06/26 14:54:21;;;;;;;6.97;3.60;;;;;;;;;;10438872;22;20025;-89
2023/06/26 14:58:24;;;;;;;7.47;3.97;;;;;;;;;;10439296;22;20015;-90
2023/06/26 15:02:29;;;;;;;6.10;3.58;;;;;;;;;;10439401;22;20673;-89
2023/06/26 15:06:32;;;;;;;6.40;3.80;;;;;;;;;;10440083;22;20094;-90
2023/06/26 15:10:36;;;;;;;5.50;3.42;;;;;;;;;;10439801;22;20019;-89
2023/06/26 15:14:38;;;;;;;8.82;4.03;;;;;;;;;;10411758;22;20027;-89
2023/06/26 15:18:43;;;;;;;6.25;4.20;;;;;;;;;;10439205;22;20047;-88
2023/06/26 15:22:46;;;;;;;6.97;4.25;;;;;;;;;;10439365;22;20039;-89
2023/06/26 15:26:49;;;;;;;6.53;4.15;;;;;;;;;;10439270;22;20443;-88
2023/06/26 15:30:52;;;;;;;6.65;4.20;;;;;;;;;;10439549;22;20026;-89
2023/06/26 15:34:56;;;;;;;5.57;4.20;;;;;;;;;;10439071;22;20015;-91
2023/06/26 15:38:59;;;;;;;5.88;4.15;;;;;;;;;;10446802;22;20068;-88
2023/06/26 15:43:03;;;;;;;5.85;3.80;;;;;;;;;;10490789;22;20026;-88
2023/06/26 15:47:07;;;;;;;6.13;3.90;;;;;;;;;;10490899;22;20026;-89
2023/06/26 15:51:15;;;;;;;7.47;4.25;;;;;;;;;;10490784;22;20019;-88
2023/06/26 15:55:18;;;;;;;7.00;4.22;;;;;;;;;;10511188;22;20015;-89
2023/06/26 15:59:21;;;;;;;9.48;4.82;;;;;;;;;;10493859;22;20546;-89
2023/06/26 16:03:24;;;;;;;10.50;4.88;;;;;;;;;;10493849;22;20015;-91
2023/06/26 16:07:29;;;;;;;7.18;5.15;;;;;;;;;;10493912;22;20018;-89
2023/06/26 16:11:32;;;;;;;10.23;5.47;;;;;;;;;;10493719;22;20019;-89
2023/06/26 16:15:35;;;;;;;6.47;5.07;;;;;;;;;;10493644;22;20015;-89
2023/06/26 16:19:38;;;;;;;7.72;4.88;;;;;;;;;;10493709;22;20018;-88
2023/06/26 16:23:42;;;;;;;6.50;4.80;;;;;;;;;;10492806;22;20050;-89
2023/06/26 16:27:46;;;;;;;6.82;4.63;;;;;;;;;;10491236;22;20023;-87
2023/06/26 16:31:49;;;;;;;6.35;4.78;;;;;;;;;;10490701;22;20019;-87
2023/06/26 16:35:51;;;;;;;7.57;5.07;;;;;;;;;;10490684;22;20459;-87
2023/06/26 16:39:56;;;;;;;10.30;5.05;;;;;;;;;;10492302;22;20482;-87
2023/06/26 16:43:59;;;;;;;7.22;4.65;;;;;;;;;;10492176;22;20046;-86
2023/06/26 16:48:02;;;;;;;6.47;4.70;;;;;;;;;;10491852;22;20031;-88
2023/06/26 16:52:06;;;;;;;8.88;5.60;;;;;;;;;;10491075;22;20018;-87
2023/06/26 16:56:10;;;;;;;15.77;7.22;;;;;;;;;;10492156;22;20097;-87
2023/06/26 17:00:14;;;;;;;10.60;6.28;;;;;;;;;;10492490;22;20443;-86
2023/06/26 17:04:17;;;;;;;13.82;7.00;;;;;;;;;;10491874;22;20089;-87
2023/06/26 17:08:19;;;;;;;16.35;8.43;;;;;;;;;;10492408;22;20376;-86
2023/06/26 17:12:26;;;;;;;13.38;7.22;;;;;;;;;;10492342;22;20053;-86
2023/06/26 17:16:29;;;;;;;12.85;7.95;;;;;;;;;;10509612;22;20443;-87
2023/06/26 17:20:32;;;;;;;9.75;6.32;;;;;;;;;;10492209;22;20494;-87
2023/06/26 17:24:35;;;;;;;11.77;6.65;;;;;;;;;;10492097;22;20014;-88
2023/06/26 17:28:39;;;;;;;11.23;7.00;;;;;;;;;;10492138;22;20375;-87
2023/06/26 17:32:43;;;;;;;11.48;6.93;;;;;;;;;;10492025;22;20052;-87
2023/06/26 17:36:45;;;;;;;11.05;6.53;;;;;;;;;;10492061;22;20090;-87
2023/06/26 17:40:48;;;;;;;9.80;6.00;;;;;;;;;;10491883;22;20015;-88
2023/06/26 17:44:54;;;;;;;8.07;4.97;;;;;;;;;;10491835;22;20469;-87
2023/06/26 17:48:57;;;;;;;9.02;5.10;;;;;;;;;;10508054;22;20335;-87
2023/06/26 17:53:00;;;;;;;7.70;5.05;;;;;;;;;;10492864;22;20431;-88
2023/06/26 17:57:03;;;;;;;16.63;5.82;;;;;;;;;;10492845;22;20019;-87
2023/06/26 18:01:07;;;;;;;12.30;6.10;;;;;;;;;;10464363;22;20332;-87
2023/06/26 18:05:10;;;;;;;9.05;5.75;;;;;;;;;;10491931;22;20023;-87
2023/06/26 18:09:13;;;;;;;9.38;6.13;;;;;;;;;;10492115;22;20090;-88
2023/06/26 18:13:16;;;;;;;14.43;6.00;;;;;;;;;;10492141;22;20051;-88
2023/06/26 18:17:21;;;;;;;8.07;5.68;;;;;;;;;;10491839;22;20014;-88
2023/06/26 18:21:25;;;;;;;8.10;6.30;;;;;;;;;;10491995;22;20019;-88
2023/06/26 18:25:28;;;;;;;9.38;6.40;;;;;;;;;;10491890;22;20439;-88
2023/06/26 18:29:32;;;;;;;10.07;6.35;;;;;;;;;;10491884;22;20450;-89
2023/06/26 18:33:37;;;;;;;10.40;6.22;;;;;;;;;;10491442;22;20014;-88
2023/06/26 18:37:41;;;;;;;9.13;5.85;;;;;;;;;;10508673;22;20021;-87
2023/06/26 18:41:44;;;;;;;9.90;5.20;;;;;;;;;;10491389;22;20016;-87
2023/06/26 18:45:47;;;;;;;14.90;7.07;;;;;;;;;;10491573;22;20018;-87
2023/06/26 18:49:52;;;;;;;8.02;6.07;;;;;;;;;;10491069;22;20335;-89
2023/06/26 18:53:55;;;;;;;9.70;6.53;;;;;;;;;;10491434;22;20018;-89
2023/06/26 18:57:58;;;;;;;11.35;6.55;;;;;;;;;;10491451;22;20121;-88
2023/06/26 19:02:01;;;;;;;12.85;8.07;;;;;;;;;;10491555;22;20019;-88
2023/06/26 19:06:06;;;;;;;10.32;6.88;;;;;;;;;;10491402;22;20019;-88
2023/06/26 19:10:15;;;;;;;13.07;8.15;;;;;;;;;;10508507;22;20014;-88
2023/06/26 19:14:18;;;;;;;9.73;6.93;;;;;;;;;;10491130;22;20045;-89
2023/06/26 19:18:21;;;;;;;14.15;7.97;;;;;;;;;;10491280;22;20061;-88
2023/06/26 19:22:29;;;;;;;10.43;7.90;;;;;;;;;;10491014;22;20015;-88
2023/06/26 19:26:34;;;;;;;12.98;8.90;;;;;;;;;;10463285;22;20026;-88
2023/06/26 19:30:37;;;;;;;12.25;8.52;;;;;;;;;;10511687;22;20022;-90
2023/06/26 19:34:41;;;;;;;12.27;8.88;;;;;;;;;;10494231;22;20019;-88
2023/06/26 19:38:46;;;;;;;12.95;8.45;;;;;;;;;;10494288;22;20337;-89
2023/06/26 19:42:49;;;;;;;11.60;8.93;;;;;;;;;;10511300;22;20439;-87
2023/06/26 19:46:52;;;;;;;11.38;8.30;;;;;;;;;;10493736;22;20038;-91
2023/06/26 19:50:56;;;;;;;14.18;8.57;;;;;;;;;;10493746;22;20026;-88
2023/06/26 19:55:01;;;;;;;11.48;8.75;;;;;;;;;;10493484;22;20019;-90
2023/06/26 19:59:05;;;;;;;12.85;8.93;;;;;;;;;;10511411;22;20042;-87
2023/06/26 20:03:11;;;;;;;13.10;9.27;;;;;;;;;;10494179;22;20015;-88
2023/06/26 20:07:15;;;;;;;14.25;9.25;;;;;;;;;;10511243;22;20351;-89
2023/06/26 20:11:19;;;;;;;12.45;10.02;;;;;;;;;;10494123;22;20026;-87
2023/06/26 20:15:22;;;;;;;11.75;9.23;;;;;;;;;;10493589;22;20022;-89
2023/06/26 20:19:26;;;;;;;14.25;9.43;;;;;;;;;;10493862;22;20015;-91
2023/06/26 20:23:29;;;;;;;14.02;9.98;;;;;;;;;;10493394;22;20022;-86
2023/06/26 20:27:33;;;;;;;16.02;9.55;;;;;;;;;;10493936;22;20015;-88
2023/06/26 20:31:37;;;;;;;17.48;9.48;;;;;;;;;;10493674;22;20019;-88
2023/06/26 20:35:41;;;;;;;15.13;10.05;;;;;;;;;;10493665;22;20022;-87
2023/06/26 20:39:45;;;;;;;15.43;10.10;;;;;;;;;;10493208;22;20054;-86
2023/06/26 20:43:50;;;;;;;15.18;10.10;;;;;;;;;;10493071;22;20343;-86
2023/06/26 20:47:54;;;;;;;16.02;10.75;;;;;;;;;;10512255;22;20029;-88
2023/06/26 20:51:58;;;;;;;15.93;10.70;;;;;;;;;;10496002;22;20102;-87
2023/06/26 20:56:02;;;;;;;16.00;10.88;;;;;;;;;;10496420;22;20034;-88
2023/06/26 21:00:08;;;;;;;15.95;11.23;;;;;;;;;;10494662;22;20018;-88
2023/06/26 21:04:11;;;;;;;19.25;11.48;;;;;;;;;;10511819;22;20021;-87
2023/06/26 21:08:14;;;;;;;13.68;10.55;;;;;;;;;;10494268;22;20057;-86
2023/06/26 21:12:20;;;;;;;14.23;10.50;;;;;;;;;;10493839;22;20018;-87
2023/06/26 21:16:25;;;;;;;16.92;11.20;;;;;;;;;;10509708;22;20021;-87
2023/06/26 21:20:27;;;;;;;16.00;10.73;;;;;;;;;;10492917;22;20022;-89
2023/06/26 21:24:30;;;;;;;14.80;10.73;;;;;;;;;;10493325;22;20018;-88
2023/06/26 21:28:33;;;;;;;13.82;10.05;;;;;;;;;;10493370;22;20092;-88
2023/06/26 21:32:38;;;;;;;16.38;10.98;;;;;;;;;;10493302;22;20094;-89
2023/06/26 21:36:40;;;;;;;17.25;11.52;;;;;;;;;;10492851;22;20045;-87
2023/06/26 21:40:44;;;;;;;12.93;10.10;;;;;;;;;;10492862;22;20021;-87
2023/06/26 21:44:46;;;;;;;14.68;11.82;;;;;;;;;;10492886;22;20023;-88
2023/06/26 21:48:51;;;;;;;15.05;10.77;;;;;;;;;;10492955;22;20010;-86
2023/06/26 21:52:54;;;;;;;14.07;10.55;;;;;;;;;;10492580;22;20125;-86
2023/06/26 21:56:57;;;;;;;17.40;10.75;;;;;;;;;;10492481;22;20014;-86
2023/06/26 22:01:00;;;;;;;14.18;10.52;;;;;;;;;;10492253;22;20022;-86
2023/06/26 22:05:05;;;;;;;14.02;10.38;;;;;;;;;;10492428;22;20076;-87
2023/06/26 22:09:08;;;;;;;14.00;10.32;;;;;;;;;;10492120;22;20095;-87
2023/06/26 22:13:12;;;;;;;14.68;10.45;;;;;;;;;;10492298;22;20021;-88
2023/06/26 22:17:15;;;;;;;12.27;9.90;;;;;;;;;;10491660;22;20471;-87
2023/06/26 22:21:19;;;;;;;15.65;10.18;;;;;;;;;;10492168;22;20429;-88
2023/06/26 22:25:22;;;;;;;16.95;10.63;;;;;;;;;;10491726;22;20019;-88
2023/06/26 22:29:25;;;;;;;15.68;9.98;;;;;;;;;;10464659;22;20075;-87
2023/06/26 22:33:27;;;;;;;13.38;9.90;;;;;;;;;;10492173;22;20019;-87
2023/06/26 22:37:32;;;;;;;18.15;11.15;;;;;;;;;;10491839;22;20018;-89
2023/06/26 22:41:35;;;;;;;14.65;9.98;;;;;;;;;;10491510;22;20019;-87
2023/06/26 22:45:38;;;;;;;13.05;9.35;;;;;;;;;;10491684;22;20019;-87
2023/06/26 22:49:41;;;;;;;14.90;10.23;;;;;;;;;;10491712;22;20019;-88
2023/06/26 22:53:45;;;;;;;15.65;10.40;;;;;;;;;;10491785;22;20038;-87
2023/06/26 22:57:48;;;;;;;15.98;10.07;;;;;;;;;;10491244;22;20015;-87
2023/06/26 23:01:50;;;;;;;13.27;10.13;;;;;;;;;;10463492;22;20015;-87
2023/06/26 23:05:57;;;;;;;15.25;9.15;;;;;;;;;;10491739;22;20090;-87
2023/06/26 23:10:01;;;;;;;12.90;9.20;;;;;;;;;;10508233;22;20114;-87
2023/06/26 23:14:04;;;;;;;14.07;9.20;;;;;;;;;;10491206;22;20019;-87
2023/06/26 23:18:07;;;;;;;14.38;9.30;;;;;;;;;;10491384;22;20018;-87
2023/06/26 23:22:10;;;;;;;12.85;9.68;;;;;;;;;;10463557;22;20019;-88
2023/06/26 23:26:14;;;;;;;12.85;9.10;;;;;;;;;;10491363;22;20015;-88
2023/06/26 23:30:19;;;;;;;12.15;9.05;;;;;;;;;;10491443;22;20041;-87
2023/06/26 23:34:22;;;;;;;13.00;9.63;;;;;;;;;;10491402;22;20073;-91
2023/06/26 23:38:25;;;;;;;13.43;9.45;;;;;;;;;;10491384;22;20023;-90
2023/06/26 23:42:29;;;;;;;13.65;9.52;;;;;;;;;;10491219;22;20474;-87